South Pomfret, VT (05067)

3:00 PM EDT on March 28, 2015 (GMT -0400)
Suicide Six Ski Area | | Change Station
CLOSE
Current Station
Personal Weather Station
Location: South Pomfret, VT
Elevation: 850 ft
Nearby Weather Stations

Elev 850 ft 43.68 °N, 72.56 °W | Updated 2 seconds ago

Overcast
Overcast
32.1 °F
Feels Like 28 °F
N
4.0
Wind Variable Wind from North
Gusts 12.0 mph

Today
High -- | Low -- °F
--% Chance of Precip.
Yesterday
High -- | Low -- °F
Precip. -- in
6:39 AM 7:11 PM
Waxing Gibbous, 64% visible
Pressure 29.84 in
Visibility 10.0 miles
Clouds Mostly Cloudy 3300 ft
Overcast 4000 ft
Windchill 28 °F
Dew Point 22 °F
Humidity 67%
Rainfall 0.00 in
Snow Depth Not available.
UV 2 out of 12
Pollen .60 out of 12
Air Quality Not available.
Flu Activity Not available.
METAR KLEB 281853Z 35014G17KT 10SM BKN033 OVC040 01/M07 A2982 RMK AO2 SLP105 T00111067

More Conditions Fewer Conditions

Pressure 29.84 in
Visibility 10.0 miles
Clouds Mostly Cloudy 3300 ft
Overcast 4000 ft
Windchill 28 °F
Dew Point 22 °F
Humidity 67%
Rainfall 0.00 in
Snow Depth Not available.
UV 2 out of 12
Pollen .60 out of 12
Air Quality Not available.
Flu Activity Not available.
METAR KLEB 281853Z 35014G17KT 10SM BKN033 OVC040 01/M07 A2982 RMK AO2 SLP105 T00111067

More Conditions Fewer Conditions

10-Day Weather Forecast

Almanac

Astronomy

Mar. 28, 2015 Rise Set
Actual Time
Civil Twilight
Nautical Twilight
Astronomical Twilight
Moon
Length of Visible Light
Length of Day
Tomorrow will be .
, % of the Moon is Illuminated

Today's Extremes

State Highs State Lows

Community

WunderPhotos

Upload Photos

1,809,069 photos uploaded!

WunderBlogs® & News

Nearby

Air Quality

  Air Quality AQ Index Pollutant
Not available.

Snow Depth

Station Depth Elevation

Earthquake Activity

City Distance Mag. Time & Date
Minimum magnitude displayed is 2.5.

Coastal Water Temperatures

Place Temperature

Stations

Nearby Weather Stations

Station Location Temp. Windchill Dew Point Humidity Wind Precip. Elev Updated Type